sensor_id;sensor_type;location;lat;lon;timestamp;pressure;altitude;pressure_sealevel;temperature;humidity
44675;BME280;30388;52.038;-1.478;2022-10-23T00:01:44;66085.50;;;13.23;100.00
44675;BME280;30388;52.038;-1.478;2022-10-23T00:04:14;66047.11;;;13.19;100.00
44675;BME280;30388;52.038;-1.478;2022-10-23T00:06:42;66107.64;;;13.73;100.00
44675;BME280;30388;52.038;-1.478;2022-10-23T00:09:11;66079.75;;;13.39;100.00
44675;BME280;30388;52.038;-1.478;2022-10-23T00:11:39;66122.79;;;13.70;100.00
44675;BME280;30388;52.038;-1.478;2022-10-23T00:14:07;66073.43;;;13.31;100.00
44675;BME280;30388;52.038;-1.478;2022-10-23T00:16:34;66053.95;;;13.06;100.00
44675;BME280;30388;52.038;-1.478;2022-10-23T00:19:03;66064.14;;;13.18;100.00
44675;BME280;30388;52.038;-1.478;2022-10-23T00:21:30;66044.18;;;13.16;100.00
44675;BME280;30388;52.038;-1.478;2022-10-23T00:23:57;66075.76;;;13.55;100.00
44675;BME280;30388;52.038;-1.478;2022-10-23T00:26:24;66052.72;;;13.04;100.00
44675;BME280;30388;52.038;-1.478;2022-10-23T00:28:52;66023.73;;;12.68;100.00
44675;BME280;30388;52.038;-1.478;2022-10-23T00:31:22;66054.26;;;13.27;100.00
44675;BME280;30388;52.038;-1.478;2022-10-23T00:33:50;66088.12;;;13.49;100.00
44675;BME280;30388;52.038;-1.478;2022-10-23T00:36:20;66127.32;;;13.98;100.00
44675;BME280;30388;52.038;-1.478;2022-10-23T00:38:48;66116.88;;;13.84;100.00
44675;BME280;30388;52.038;-1.478;2022-10-23T00:41:20;66151.71;;;13.80;100.00
44675;BME280;30388;52.038;-1.478;2022-10-23T00:43:57;66155.63;;;13.85;100.00
44675;BME280;30388;52.038;-1.478;2022-10-23T00:46:25;66227.69;;;14.76;100.00
44675;BME280;30388;52.038;-1.478;2022-10-23T00:48:53;66252.35;;;14.85;100.00
44675;BME280;30388;52.038;-1.478;2022-10-23T00:51:20;66285.28;;;15.03;100.00
44675;BME280;30388;52.038;-1.478;2022-10-23T00:53:49;66192.22;;;14.31;100.00
44675;BME280;30388;52.038;-1.478;2022-10-23T00:56:18;66160.54;;;13.91;100.00
44675;BME280;30388;52.038;-1.478;2022-10-23T00:58:45;66134.97;;;13.85;100.00
44675;BME280;30388;52.038;-1.478;2022-10-23T01:01:16;66097.76;;;13.60;100.00
44675;BME280;30388;52.038;-1.478;2022-10-23T01:03:44;66061.87;;;13.15;100.00
44675;BME280;30388;52.038;-1.478;2022-10-23T01:06:16;65983.37;;;12.66;100.00
44675;BME280;30388;52.038;-1.478;2022-10-23T01:08:50;65993.51;;;12.78;100.00
44675;BME280;30388;52.038;-1.478;2022-10-23T01:11:23;65979.55;;;12.60;100.00
44675;BME280;30388;52.038;-1.478;2022-10-23T01:13:58;65973.43;;;12.26;100.00
44675;BME280;30388;52.038;-1.478;2022-10-23T01:16:35;65973.43;;;12.53;100.00
44675;BME280;30388;52.038;-1.478;2022-10-23T01:19:13;65944.60;;;12.16;100.00
44675;BME280;30388;52.038;-1.478;2022-10-23T01:21:54;65961.00;;;12.36;100.00
44675;BME280;30388;52.038;-1.478;2022-10-23T01:24:33;65902.13;;;12.11;100.00
44675;BME280;30388;52.038;-1.478;2022-10-23T01:27:14;65932.62;;;12.24;100.00
44675;BME280;30388;52.038;-1.478;2022-10-23T01:29:44;65956.91;;;12.31;100.00
44675;BME280;30388;52.038;-1.478;2022-10-23T01:32:15;65949.27;;;12.23;100.00
44675;BME280;30388;52.038;-1.478;2022-10-23T01:34:48;65966.21;;;12.43;100.00
44675;BME280;30388;52.038;-1.478;2022-10-23T01:37:22;65989.25;;;12.46;100.00
44675;BME280;30388;52.038;-1.478;2022-10-23T01:39:55;65992.95;;;12.50;100.00
44675;BME280;30388;52.038;-1.478;2022-10-23T01:42:28;65996.11;;;12.55;100.00
44675;BME280;30388;52.038;-1.478;2022-10-23T01:45:03;65992.98;;;12.77;100.00
44675;BME280;30388;52.038;-1.478;2022-10-23T01:47:34;65962.52;;;12.62;100.00
44675;BME280;30388;52.038;-1.478;2022-10-23T01:50:04;65923.25;;;12.12;100.00
44675;BME280;30388;52.038;-1.478;2022-10-23T01:52:32;65894.18;;;12.02;100.00
44675;BME280;30388;52.038;-1.478;2022-10-23T01:55:00;65889.21;;;11.95;100.00
44675;BME280;30388;52.038;-1.478;2022-10-23T01:57:29;65903.24;;;12.13;100.00
44675;BME280;30388;52.038;-1.478;2022-10-23T02:00:00;65921.85;;;12.36;100.00
44675;BME280;30388;52.038;-1.478;2022-10-23T02:02:31;65905.30;;;12.16;100.00
44675;BME280;30388;52.038;-1.478;2022-10-23T02:05:04;65908.82;;;11.71;100.00
44675;BME280;30388;52.038;-1.478;2022-10-23T02:07:33;65906.56;;;12.17;100.00
44675;BME280;30388;52.038;-1.478;2022-10-23T02:10:02;65902.90;;;12.13;100.00
44675;BME280;30388;52.038;-1.478;2022-10-23T02:12:36;65910.11;;;12.22;100.00
44675;BME280;30388;52.038;-1.478;2022-10-23T02:15:09;65868.14;;;11.90;100.00
44675;BME280;30388;52.038;-1.478;2022-10-23T02:17:44;65859.86;;;11.58;100.00
44675;BME280;30388;52.038;-1.478;2022-10-23T02:20:21;65872.22;;;11.73;100.00
44675;BME280;30388;52.038;-1.478;2022-10-23T02:22:57;65868.70;;;11.69;100.00
44675;BME280;30388;52.038;-1.478;2022-10-23T02:25:31;65848.46;;;11.66;100.00
44675;BME280;30388;52.038;-1.478;2022-10-23T02:28:04;65868.37;;;11.69;100.00
44675;BME280;30388;52.038;-1.478;2022-10-23T02:30:35;65890.34;;;11.97;100.00
44675;BME280;30388;52.038;-1.478;2022-10-23T02:33:04;65881.25;;;11.59;100.00
44675;BME280;30388;52.038;-1.478;2022-10-23T02:35:33;65894.71;;;11.53;100.00
44675;BME280;30388;52.038;-1.478;2022-10-23T02:38:01;65896.80;;;11.78;100.00
44675;BME280;30388;52.038;-1.478;2022-10-23T02:40:32;65876.76;;;11.53;100.00
44675;BME280;30388;52.038;-1.478;2022-10-23T02:43:05;65865.99;;;11.89;100.00
44675;BME280;30388;52.038;-1.478;2022-10-23T02:45:40;65877.90;;;11.81;100.00
44675;BME280;30388;52.038;-1.478;2022-10-23T02:48:13;65910.42;;;11.96;100.00
44675;BME280;30388;52.038;-1.478;2022-10-23T02:50:52;65883.16;;;11.88;100.00
44675;BME280;30388;52.038;-1.478;2022-10-23T02:53:29;65888.14;;;11.94;100.00
44675;BME280;30388;52.038;-1.478;2022-10-23T02:56:04;65885.60;;;11.91;100.00
44675;BME280;30388;52.038;-1.478;2022-10-23T02:58:40;65860.11;;;12.03;100.00
44675;BME280;30388;52.038;-1.478;2022-10-23T03:01:13;65828.10;;;11.63;100.00
44675;BME280;30388;52.038;-1.478;2022-10-23T03:03:46;65817.53;;;11.50;100.00
44675;BME280;30388;52.038;-1.478;2022-10-23T03:06:17;65829.71;;;11.42;100.00
44675;BME280;30388;52.038;-1.478;2022-10-23T03:08:51;65839.60;;;11.55;100.00
44675;BME280;30388;52.038;-1.478;2022-10-23T03:11:19;65847.45;;;11.43;100.00
44675;BME280;30388;52.038;-1.478;2022-10-23T03:13:47;65810.61;;;11.41;100.00
44675;BME280;30388;52.038;-1.478;2022-10-23T03:16:14;65828.21;;;11.41;100.00
44675;BME280;30388;52.038;-1.478;2022-10-23T03:18:41;65878.11;;;11.82;100.00
44675;BME280;30388;52.038;-1.478;2022-10-23T03:21:08;65858.73;;;11.80;100.00
44675;BME280;30388;52.038;-1.478;2022-10-23T03:23:35;65831.64;;;11.67;100.00
44675;BME280;30388;52.038;-1.478;2022-10-23T03:26:02;65856.50;;;11.54;100.00
44675;BME280;30388;52.038;-1.478;2022-10-23T03:28:29;65877.73;;;11.81;100.00
44675;BME280;30388;52.038;-1.478;2022-10-23T03:30:56;65862.85;;;11.62;100.00
44675;BME280;30388;52.038;-1.478;2022-10-23T03:33:23;65865.05;;;11.65;100.00
44675;BME280;30388;52.038;-1.478;2022-10-23T03:35:50;65863.74;;;11.63;100.00
44675;BME280;30388;52.038;-1.478;2022-10-23T03:38:18;65851.37;;;11.69;100.00
44675;BME280;30388;52.038;-1.478;2022-10-23T03:40:46;65839.77;;;11.77;100.00
44675;BME280;30388;52.038;-1.478;2022-10-23T03:43:13;65888.36;;;11.94;100.00
44675;BME280;30388;52.038;-1.478;2022-10-23T03:45:40;65848.42;;;11.66;100.00
44675;BME280;30388;52.038;-1.478;2022-10-23T03:48:07;65869.13;;;11.92;100.00
44675;BME280;30388;52.038;-1.478;2022-10-23T03:50:35;65856.61;;;11.54;100.00
44675;BME280;30388;52.038;-1.478;2022-10-23T03:53:01;65832.11;;;11.45;100.00
44675;BME280;30388;52.038;-1.478;2022-10-23T03:55:29;65828.41;;;11.63;100.00
44675;BME280;30388;52.038;-1.478;2022-10-23T03:57:56;65823.11;;;11.56;100.00
44675;BME280;30388;52.038;-1.478;2022-10-23T04:00:28;65855.30;;;11.75;100.00
44675;BME280;30388;52.038;-1.478;2022-10-23T04:02:55;65870.99;;;11.94;100.00
44675;BME280;30388;52.038;-1.478;2022-10-23T04:05:23;65904.60;;;12.14;100.00
44675;BME280;30388;52.038;-1.478;2022-10-23T04:07:50;65916.99;;;12.31;100.00
44675;BME280;30388;52.038;-1.478;2022-10-23T04:10:17;65896.80;;;12.05;100.00
44675;BME280;30388;52.038;-1.478;2022-10-23T04:12:44;65926.66;;;12.43;100.00
44675;BME280;30388;52.038;-1.478;2022-10-23T04:15:11;65880.18;;;11.85;100.00
44675;BME280;30388;52.038;-1.478;2022-10-23T04:17:39;65883.28;;;11.89;100.00
44675;BME280;30388;52.038;-1.478;2022-10-23T04:20:07;65895.95;;;12.04;100.00
44675;BME280;30388;52.038;-1.478;2022-10-23T04:22:34;65906.54;;;12.17;100.00
44675;BME280;30388;52.038;-1.478;2022-10-23T04:25:01;65909.56;;;12.21;100.00
44675;BME280;30388;52.038;-1.478;2022-10-23T04:27:28;65883.97;;;11.89;100.00
44675;BME280;30388;52.038;-1.478;2022-10-23T04:29:55;65857.10;;;11.77;100.00
44675;BME280;30388;52.038;-1.478;2022-10-23T04:32:23;65866.49;;;11.67;100.00
44675;BME280;30388;52.038;-1.478;2022-10-23T04:34:50;65856.92;;;11.54;100.00
44675;BME280;30388;52.038;-1.478;2022-10-23T04:37:17;65848.48;;;11.44;100.00
44675;BME280;30388;52.038;-1.478;2022-10-23T04:39:44;65860.60;;;11.59;100.00
44675;BME280;30388;52.038;-1.478;2022-10-23T04:42:11;65855.62;;;11.53;100.00
44675;BME280;30388;52.038;-1.478;2022-10-23T04:44:38;65843.64;;;11.60;100.00
44675;BME280;30388;52.038;-1.478;2022-10-23T04:47:06;65830.52;;;11.65;100.00
44675;BME280;30388;52.038;-1.478;2022-10-23T04:49:33;65843.45;;;11.82;100.00
44675;BME280;30388;52.038;-1.478;2022-10-23T04:52:00;65835.98;;;11.51;100.00
44675;BME280;30388;52.038;-1.478;2022-10-23T04:54:27;65830.53;;;11.66;100.00
44675;BME280;30388;52.038;-1.478;2022-10-23T04:56:54;65816.06;;;11.48;100.00
44675;BME280;30388;52.038;-1.478;2022-10-23T04:59:21;65798.05;;;11.25;100.00
44675;BME280;30388;52.038;-1.478;2022-10-23T05:01:48;65805.15;;;11.34;100.00
44675;BME280;30388;52.038;-1.478;2022-10-23T05:04:15;65821.08;;;11.55;100.00
44675;BME280;30388;52.038;-1.478;2022-10-23T05:06:42;65852.36;;;11.49;100.00
44675;BME280;30388;52.038;-1.478;2022-10-23T05:09:09;65855.26;;;11.74;100.00
44675;BME280;30388;52.038;-1.478;2022-10-23T05:11:36;65856.51;;;11.76;100.00
44675;BME280;30388;52.038;-1.478;2022-10-23T05:14:03;65915.44;;;12.02;100.00
44675;BME280;30388;52.038;-1.478;2022-10-23T05:16:36;65961.35;;;12.38;100.00
44675;BME280;30388;52.038;-1.478;2022-10-23T05:19:06;66016.83;;;12.59;100.00
44675;BME280;30388;52.038;-1.478;2022-10-23T05:21:36;66094.48;;;13.35;100.00
44675;BME280;30388;52.038;-1.478;2022-10-23T05:24:05;66175.87;;;14.11;100.00
44675;BME280;30388;52.038;-1.478;2022-10-23T05:26:32;66142.04;;;13.67;100.00
44675;BME280;30388;52.038;-1.478;2022-10-23T05:28:59;66047.63;;;12.98;100.00
44675;BME280;30388;52.038;-1.478;2022-10-23T05:31:26;65995.33;;;12.54;100.00
44675;BME280;30388;52.038;-1.478;2022-10-23T05:33:54;65930.14;;;12.47;100.00
44675;BME280;30388;52.038;-1.478;2022-10-23T05:36:22;65876.60;;;12.02;100.00
44675;BME280;30388;52.038;-1.478;2022-10-23T05:38:51;65856.93;;;11.77;100.00
44675;BME280;30388;52.038;-1.478;2022-10-23T05:41:18;65877.06;;;12.02;100.00
44675;BME280;30388;52.038;-1.478;2022-10-23T05:43:45;65920.45;;;12.36;100.00
44675;BME280;30388;52.038;-1.478;2022-10-23T05:46:12;65917.80;;;12.30;100.00
44675;BME280;30388;52.038;-1.478;2022-10-23T05:48:39;65888.01;;;12.17;100.00
44675;BME280;30388;52.038;-1.478;2022-10-23T05:51:08;65849.29;;;11.67;100.00
44675;BME280;30388;52.038;-1.478;2022-10-23T05:53:36;65877.70;;;11.80;100.00
44675;BME280;30388;52.038;-1.478;2022-10-23T05:56:04;65844.27;;;11.83;100.00
44675;BME280;30388;52.038;-1.478;2022-10-23T05:58:32;65845.88;;;11.41;100.00
44675;BME280;30388;52.038;-1.478;2022-10-23T06:01:04;65858.27;;;11.79;100.00
44675;BME280;30388;52.038;-1.478;2022-10-23T06:03:31;65856.61;;;11.99;100.00
44675;BME280;30388;52.038;-1.478;2022-10-23T06:05:58;65851.71;;;11.48;100.00
44675;BME280;30388;52.038;-1.478;2022-10-23T06:08:25;65863.43;;;12.07;100.00
44675;BME280;30388;52.038;-1.478;2022-10-23T06:10:52;65860.02;;;12.04;100.00
44675;BME280;30388;52.038;-1.478;2022-10-23T06:13:19;65858.99;;;11.79;100.00
44675;BME280;30388;52.038;-1.478;2022-10-23T06:15:46;65842.94;;;11.81;100.00
44675;BME280;30388;52.038;-1.478;2022-10-23T06:18:13;65847.75;;;11.88;100.00
44675;BME280;30388;52.038;-1.478;2022-10-23T06:20:40;65874.34;;;11.99;100.00
44675;BME280;30388;52.038;-1.478;2022-10-23T06:23:07;65859.41;;;12.02;100.00
44675;BME280;30388;52.038;-1.478;2022-10-23T06:25:34;65841.28;;;11.80;100.00
44675;BME280;30388;52.038;-1.478;2022-10-23T06:28:01;65844.62;;;11.84;100.00
44675;BME280;30388;52.038;-1.478;2022-10-23T06:30:28;65868.26;;;12.14;100.00
44675;BME280;30388;52.038;-1.478;2022-10-23T06:32:55;65861.51;;;11.61;100.00
44675;BME280;30388;52.038;-1.478;2022-10-23T06:35:23;65832.19;;;11.68;100.00
44675;BME280;30388;52.038;-1.478;2022-10-23T06:37:49;65838.67;;;11.75;100.00
44675;BME280;30388;52.038;-1.478;2022-10-23T06:40:17;65828.91;;;11.64;100.00
44675;BME280;30388;52.038;-1.478;2022-10-23T06:42:44;65809.95;;;11.66;100.00
44675;BME280;30388;52.038;-1.478;2022-10-23T06:45:11;65856.29;;;11.54;100.00
44675;BME280;30388;52.038;-1.478;2022-10-23T06:47:38;65817.26;;;11.50;100.00
44675;BME280;30388;52.038;-1.478;2022-10-23T06:50:06;65821.32;;;11.54;100.00
44675;BME280;30388;52.038;-1.478;2022-10-23T06:52:33;65848.69;;;11.44;100.00
44675;BME280;30388;52.038;-1.478;2022-10-23T06:55:00;65844.99;;;11.85;100.00
44675;BME280;30388;52.038;-1.478;2022-10-23T06:57:27;65812.47;;;11.43;100.00
44675;BME280;30388;52.038;-1.478;2022-10-23T06:59:54;65823.18;;;11.57;100.00
44675;BME280;30388;52.038;-1.478;2022-10-23T07:02:21;65832.66;;;11.68;100.00
44675;BME280;30388;52.038;-1.478;2022-10-23T07:04:48;65838.90;;;11.54;100.00
44675;BME280;30388;52.038;-1.478;2022-10-23T07:07:16;65844.63;;;11.84;100.00
44675;BME280;30388;52.038;-1.478;2022-10-23T07:09:44;65863.81;;;12.07;100.00
44675;BME280;30388;52.038;-1.478;2022-10-23T07:12:11;65852.95;;;11.72;100.00
44675;BME280;30388;52.038;-1.478;2022-10-23T07:14:38;65881.54;;;12.08;100.00
44675;BME280;30388;52.038;-1.478;2022-10-23T07:17:05;65900.26;;;12.10;100.00
44675;BME280;30388;52.038;-1.478;2022-10-23T07:19:32;65892.85;;;12.00;100.00
44675;BME280;30388;52.038;-1.478;2022-10-23T07:21:59;65886.28;;;11.93;100.00
44675;BME280;30388;52.038;-1.478;2022-10-23T07:24:27;65861.03;;;11.81;100.00
44675;BME280;30388;52.038;-1.478;2022-10-23T07:26:54;65855.40;;;11.98;100.00
44675;BME280;30388;52.038;-1.478;2022-10-23T07:29:21;65841.17;;;11.80;100.00
44675;BME280;30388;52.038;-1.478;2022-10-23T07:31:48;65853.54;;;11.73;100.00
44675;BME280;30388;52.038;-1.478;2022-10-23T07:34:15;65895.76;;;12.25;100.00
44675;BME280;30388;52.038;-1.478;2022-10-23T07:36:42;65858.43;;;11.79;100.00
44675;BME280;30388;52.038;-1.478;2022-10-23T07:39:09;65930.43;;;12.48;100.00
44675;BME280;30388;52.038;-1.478;2022-10-23T07:41:36;65933.71;;;12.25;100.00
44675;BME280;30388;52.038;-1.478;2022-10-23T07:44:03;65944.22;;;12.66;100.00
44675;BME280;30388;52.038;-1.478;2022-10-23T07:46:30;65942.09;;;12.84;100.00
44675;BME280;30388;52.038;-1.478;2022-10-23T07:48:57;65974.31;;;12.54;100.00
44675;BME280;30388;52.038;-1.478;2022-10-23T07:51:24;65927.58;;;12.18;100.00
44675;BME280;30388;52.038;-1.478;2022-10-23T07:53:51;65942.90;;;12.15;100.00
44675;BME280;30388;52.038;-1.478;2022-10-23T07:56:22;65996.25;;;12.82;100.00
44675;BME280;30388;52.038;-1.478;2022-10-23T07:58:50;66013.00;;;12.55;100.00
44675;BME280;30388;52.038;-1.478;2022-10-23T08:01:20;66112.46;;;13.80;100.00
44675;BME280;30388;52.038;-1.478;2022-10-23T08:03:49;66014.95;;;12.79;100.00
44675;BME280;30388;52.038;-1.478;2022-10-23T08:06:16;65996.85;;;12.82;100.00
44675;BME280;30388;52.038;-1.478;2022-10-23T08:08:44;66047.98;;;12.99;100.00
44675;BME280;30388;52.038;-1.478;2022-10-23T08:11:13;66092.13;;;13.31;100.00
44675;BME280;30388;52.038;-1.478;2022-10-23T08:13:40;66124.48;;;13.73;100.00
44675;BME280;30388;52.038;-1.478;2022-10-23T08:16:07;66068.06;;;13.24;100.00
44675;BME280;30388;52.038;-1.478;2022-10-23T08:18:34;66115.21;;;13.83;100.00
44675;BME280;30388;52.038;-1.478;2022-10-23T08:21:03;66071.22;;;13.50;100.00
44675;BME280;30388;52.038;-1.478;2022-10-23T08:23:30;66033.14;;;13.29;100.00
44675;BME280;30388;52.038;-1.478;2022-10-23T08:25:58;66000.01;;;12.86;100.00
44675;BME280;30388;52.038;-1.478;2022-10-23T08:28:26;65989.10;;;12.73;100.00
44675;BME280;30388;52.038;-1.478;2022-10-23T08:30:54;66041.85;;;13.13;100.00
44675;BME280;30388;52.038;-1.478;2022-10-23T08:33:21;65967.38;;;12.94;100.00
44675;BME280;30388;52.038;-1.478;2022-10-23T08:35:48;66002.44;;;12.89;100.00
44675;BME280;30388;52.038;-1.478;2022-10-23T08:38:15;66005.17;;;12.93;100.00
44675;BME280;30388;52.038;-1.478;2022-10-23T08:40:44;66048.86;;;13.22;100.00
44675;BME280;30388;52.038;-1.478;2022-10-23T08:43:18;66093.94;;;13.56;100.00
44675;BME280;30388;52.038;-1.478;2022-10-23T08:45:49;66104.78;;;13.70;100.00
44675;BME280;30388;52.038;-1.478;2022-10-23T08:48:22;66172.45;;;14.55;100.00
44675;BME280;30388;52.038;-1.478;2022-10-23T08:50:55;66213.73;;;14.36;100.00
44675;BME280;30388;52.038;-1.478;2022-10-23T08:53:27;66290.34;;;15.33;100.00
44675;BME280;30388;52.038;-1.478;2022-10-23T08:56:00;66221.25;;;14.68;100.00
44675;BME280;30388;52.038;-1.478;2022-10-23T08:58:35;66114.78;;;13.82;100.00
44675;BME280;30388;52.038;-1.478;2022-10-23T09:01:25;66079.83;;;13.60;100.00
44675;BME280;30388;52.038;-1.478;2022-10-23T09:03:56;65990.65;;;12.97;100.00
44675;BME280;30388;52.038;-1.478;2022-10-23T09:06:32;65964.40;;;12.64;100.00
44675;BME280;30388;52.038;-1.478;2022-10-23T09:09:16;65927.43;;;12.44;100.00
44675;BME280;30388;52.038;-1.478;2022-10-23T09:11:55;65873.38;;;11.98;100.00
44675;BME280;30388;52.038;-1.478;2022-10-23T09:14:38;65874.43;;;12.00;100.00
44675;BME280;30388;52.038;-1.478;2022-10-23T09:17:15;65917.31;;;12.05;100.00
44675;BME280;30388;52.038;-1.478;2022-10-23T09:19:46;65944.33;;;12.39;100.00
44675;BME280;30388;52.038;-1.478;2022-10-23T09:22:17;65920.79;;;12.36;100.00
44675;BME280;30388;52.038;-1.478;2022-10-23T09:24:44;65928.73;;;12.46;100.00
44675;BME280;30388;52.038;-1.478;2022-10-23T09:27:14;65946.37;;;12.19;100.00
44675;BME280;30388;52.038;-1.478;2022-10-23T09:29:48;65985.95;;;12.69;100.00
44675;BME280;30388;52.038;-1.478;2022-10-23T09:32:15;65977.54;;;12.59;100.00
44675;BME280;30388;52.038;-1.478;2022-10-23T09:34:53;65999.44;;;12.86;100.00
44675;BME280;30388;52.038;-1.478;2022-10-23T09:37:23;65999.01;;;12.86;100.00
44675;BME280;30388;52.038;-1.478;2022-10-23T09:40:03;66001.59;;;12.89;100.00
44675;BME280;30388;52.038;-1.478;2022-10-23T09:42:50;66082.56;;;13.43;100.00
44675;BME280;30388;52.038;-1.478;2022-10-23T09:45:23;66069.38;;;13.48;100.00
44675;BME280;30388;52.038;-1.478;2022-10-23T09:48:04;66030.23;;;12.98;100.00
44675;BME280;30388;52.038;-1.478;2022-10-23T09:50:32;66019.23;;;12.85;100.00
44675;BME280;30388;52.038;-1.478;2022-10-23T09:52:59;66010.04;;;13.00;100.00
44675;BME280;30388;52.038;-1.478;2022-10-23T09:55:27;65969.09;;;12.97;100.00
44675;BME280;30388;52.038;-1.478;2022-10-23T09:57:55;65985.52;;;12.91;100.00
44675;BME280;30388;52.038;-1.478;2022-10-23T10:00:24;65977.95;;;12.59;100.00
44675;BME280;30388;52.038;-1.478;2022-10-23T10:02:57;65933.39;;;12.51;100.00
44675;BME280;30388;52.038;-1.478;2022-10-23T10:05:28;65947.99;;;12.70;100.00
44675;BME280;30388;52.038;-1.478;2022-10-23T10:07:57;65940.80;;;12.13;100.00
44675;BME280;30388;52.038;-1.478;2022-10-23T10:10:35;65913.07;;;12.26;100.00
44675;BME280;30388;52.038;-1.478;2022-10-23T10:13:06;65893.10;;;12.23;100.00
44675;BME280;30388;52.038;-1.478;2022-10-23T10:15:46;65912.17;;;12.25;100.00
44675;BME280;30388;52.038;-1.478;2022-10-23T10:18:20;65940.50;;;12.12;100.00
44675;BME280;30388;52.038;-1.478;2022-10-23T10:20:59;65947.48;;;12.43;100.00
44675;BME280;30388;52.038;-1.478;2022-10-23T10:23:33;65990.43;;;12.75;100.00
44675;BME280;30388;52.038;-1.478;2022-10-23T10:26:14;66015.55;;;13.06;100.00
44675;BME280;30388;52.038;-1.478;2022-10-23T10:28:57;65969.69;;;12.98;100.00
44675;BME280;30388;52.038;-1.478;2022-10-23T10:31:34;65999.33;;;12.86;100.00
44675;BME280;30388;52.038;-1.478;2022-10-23T10:34:11;66026.78;;;13.21;100.00
44675;BME280;30388;52.038;-1.478;2022-10-23T10:36:46;66021.90;;;13.15;100.00
44675;BME280;30388;52.038;-1.478;2022-10-23T10:39:22;66030.50;;;12.99;100.00
44675;BME280;30388;52.038;-1.478;2022-10-23T10:42:00;66018.84;;;13.33;100.00
44675;BME280;30388;52.038;-1.478;2022-10-23T10:44:52;66046.79;;;13.47;100.00
44675;BME280;30388;52.038;-1.478;2022-10-23T10:47:29;66034.69;;;13.31;100.00
44675;BME280;30388;52.038;-1.478;2022-10-23T10:50:07;66093.43;;;13.78;100.00
44675;BME280;30388;52.038;-1.478;2022-10-23T10:52:46;66135.09;;;14.09;100.00
44675;BME280;30388;52.038;-1.478;2022-10-23T10:55:20;66076.87;;;13.84;100.00
44675;BME280;30388;52.038;-1.478;2022-10-23T10:57:55;66103.86;;;14.18;100.00
44675;BME280;30388;52.038;-1.478;2022-10-23T11:00:23;66050.39;;;13.73;100.00
44675;BME280;30388;52.038;-1.478;2022-10-23T11:02:53;66098.70;;;14.12;100.00
44675;BME280;30388;52.038;-1.478;2022-10-23T11:05:30;66180.21;;;14.16;100.00
44675;BME280;30388;52.038;-1.478;2022-10-23T11:07:59;66183.67;;;14.70;100.00
44675;BME280;30388;52.038;-1.478;2022-10-23T11:10:29;66172.84;;;14.57;100.00
44675;BME280;30388;52.038;-1.478;2022-10-23T11:12:57;66246.99;;;15.50;100.00
44675;BME280;30388;52.038;-1.478;2022-10-23T11:15:28;66235.61;;;15.13;100.00
44675;BME280;30388;52.038;-1.478;2022-10-23T11:18:05;66256.16;;;15.13;100.00
44675;BME280;30388;52.038;-1.478;2022-10-23T11:20:48;66190.91;;;14.31;100.00
44675;BME280;30388;52.038;-1.478;2022-10-23T11:24:08;66203.50;;;14.73;100.00
44675;BME280;30388;52.038;-1.478;2022-10-23T11:26:52;66351.15;;;16.10;100.00
44675;BME280;30388;52.038;-1.478;2022-10-23T11:29:34;66365.70;;;15.79;100.00
44675;BME280;30388;52.038;-1.478;2022-10-23T11:32:19;66309.72;;;15.58;100.00
44675;BME280;30388;52.038;-1.478;2022-10-23T11:35:03;66364.11;;;16.03;100.00
44675;BME280;30388;52.038;-1.478;2022-10-23T11:37:36;66341.05;;;15.75;100.00
44675;BME280;30388;52.038;-1.478;2022-10-23T11:40:20;66301.65;;;15.48;100.00
44675;BME280;30388;52.038;-1.478;2022-10-23T11:42:49;66409.67;;;16.12;100.00
44675;BME280;30388;52.038;-1.478;2022-10-23T11:45:29;66390.55;;;15.89;100.00
44675;BME280;30388;52.038;-1.478;2022-10-23T11:47:58;66355.03;;;15.93;100.00
44675;BME280;30388;52.038;-1.478;2022-10-23T11:50:28;66357.95;;;15.96;100.00
44675;BME280;30388;52.038;-1.478;2022-10-23T11:53:00;66366.88;;;16.07;100.00
44675;BME280;30388;52.038;-1.478;2022-10-23T11:55:29;66459.38;;;16.74;100.00
44675;BME280;30388;52.038;-1.478;2022-10-23T11:58:42;66458.35;;;16.46;100.00
44675;BME280;30388;52.038;-1.478;2022-10-23T12:01:24;66447.18;;;16.59;100.00
44675;BME280;30388;52.038;-1.478;2022-10-23T12:03:57;66452.82;;;16.66;100.00
44675;BME280;30388;52.038;-1.478;2022-10-23T12:06:27;66543.20;;;17.31;100.00
44675;BME280;30388;52.038;-1.478;2022-10-23T12:09:00;66612.38;;;17.96;100.00
44675;BME280;30388;52.038;-1.478;2022-10-23T12:11:41;66497.94;;;16.74;100.00
44675;BME280;30388;52.038;-1.478;2022-10-23T12:14:26;66570.73;;;17.66;100.00
44675;BME280;30388;52.038;-1.478;2022-10-23T12:16:53;66701.90;;;18.82;100.00
44675;BME280;30388;52.038;-1.478;2022-10-23T12:19:23;66525.56;;;17.31;100.00
44675;BME280;30388;52.038;-1.478;2022-10-23T12:21:51;66527.61;;;17.11;100.00
44675;BME280;30388;52.038;-1.478;2022-10-23T12:24:45;66444.99;;;16.30;100.00
44675;BME280;30388;52.038;-1.478;2022-10-23T12:27:27;66454.32;;;16.68;100.00
44675;BME280;30388;52.038;-1.478;2022-10-23T12:30:16;66536.19;;;17.22;100.00
44675;BME280;30388;52.038;-1.478;2022-10-23T12:32:57;66585.42;;;17.83;100.00
44675;BME280;30388;52.038;-1.478;2022-10-23T12:35:44;66626.52;;;18.35;100.00
44675;BME280;30388;52.038;-1.478;2022-10-23T12:38:14;66630.78;;;17.91;100.00
44675;BME280;30388;52.038;-1.478;2022-10-23T12:40:44;66544.88;;;17.33;100.00
44675;BME280;30388;52.038;-1.478;2022-10-23T12:43:29;66574.49;;;17.21;100.00
44675;BME280;30388;52.038;-1.478;2022-10-23T12:46:02;66570.50;;;17.65;100.00
44675;BME280;30388;52.038;-1.478;2022-10-23T12:48:32;66493.45;;;16.68;100.00
44675;BME280;30388;52.038;-1.478;2022-10-23T12:51:00;66465.75;;;16.55;100.00
44675;BME280;30388;52.038;-1.478;2022-10-23T12:53:27;66498.24;;;16.96;100.00
44675;BME280;30388;52.038;-1.478;2022-10-23T12:55:56;66412.41;;;16.14;100.00
44675;BME280;30388;52.038;-1.478;2022-10-23T12:58:26;66441.58;;;16.52;100.00
44675;BME280;30388;52.038;-1.478;2022-10-23T13:00:56;66565.91;;;17.37;100.00